Time;durP1;ratioP1;P1;durP2;ratioP2;P2;SDS_P1;SDS_P2;PMS_P1;PMS_P2;Temp;Humidity;BMP_temperature;BMP_pressure;BME280_temperature;BME280_humidity;BME280_pressure;Samples;Min_cycle;Max_cycle;Signal;HPM_P1;HPM_P2
2023/10/09 00:02:15;;;;;;;1.15;0.70;;;;;;;12.93;100.00;101675.78;6285346;28;20045;-71
2023/10/09 00:05:27;;;;;;;1.63;0.80;;;;;;;12.93;100.00;101657.31;6292829;28;20603;-70
2023/10/09 00:08:31;;;;;;;1.42;0.90;;;;;;;12.92;100.00;101668.78;6301416;28;20084;-70
2023/10/09 00:11:38;;;;;;;2.53;1.30;;;;;;;12.91;100.00;101664.44;6300048;28;20420;-70
2023/10/09 00:14:40;;;;;;;1.52;0.70;;;;;;;12.94;100.00;101643.19;6301316;28;20055;-70
2023/10/09 00:17:46;;;;;;;3.08;0.68;;;;;;;12.94;100.00;101634.41;6300849;28;20122;-71
2023/10/09 00:20:54;;;;;;;3.25;0.82;;;;;;;12.93;100.00;101628.28;6300929;28;20128;-71
2023/10/09 00:23:59;;;;;;;2.83;0.82;;;;;;;12.92;100.00;101629.22;6300847;28;20103;-70
2023/10/09 00:27:11;;;;;;;1.85;0.73;;;;;;;12.93;100.00;101623.00;6300786;28;20045;-70
2023/10/09 00:30:17;;;;;;;1.73;0.93;;;;;;;12.94;100.00;101610.66;6300362;28;20044;-71
2023/10/09 00:33:22;;;;;;;4.63;0.85;;;;;;;12.93;100.00;101603.69;6300772;28;20044;-70
2023/10/09 00:36:28;;;;;;;3.20;0.90;;;;;;;12.94;100.00;101634.41;6300582;28;20056;-70
2023/10/09 00:39:43;;;;;;;2.28;0.85;;;;;;;12.94;100.00;101652.88;6300322;28;20075;-71
2023/10/09 00:42:44;;;;;;;1.63;0.82;;;;;;;12.90;100.00;101657.47;6300641;28;20127;-70
2023/10/09 00:45:50;;;;;;;3.15;0.73;;;;;;;12.87;100.00;101664.66;6300631;28;20052;-70
2023/10/09 00:48:55;;;;;;;4.13;1.00;;;;;;;12.81;100.00;101667.59;6300347;28;20053;-70
2023/10/09 00:51:58;;;;;;;3.03;1.00;;;;;;;12.84;100.00;101667.44;6300464;28;20051;-71
2023/10/09 00:55:04;;;;;;;1.95;1.00;;;;;;;12.83;100.00;101653.41;6300272;28;20432;-71
2023/10/09 00:58:12;;;;;;;1.27;0.88;;;;;;;12.87;100.00;101643.56;6300576;28;20056;-70
2023/10/09 01:01:16;;;;;;;1.75;0.88;;;;;;;12.85;100.00;101643.66;6299861;28;20052;-72
2023/10/09 01:04:17;;;;;;;5.30;0.90;;;;;;;12.85;100.00;101629.56;6300572;28;20056;-72
2023/10/09 01:07:25;;;;;;;3.97;0.77;;;;;;;12.81;100.00;101622.75;6300248;28;20048;-73
2023/10/09 01:10:34;;;;;;;0.98;0.60;;;;;;;12.80;100.00;101619.25;6299713;28;20348;-72
2023/10/09 01:13:52;;;;;;;4.67;0.93;;;;;;;12.82;100.00;101611.28;6300191;28;20355;-72
2023/10/09 01:16:54;;;;;;;3.05;0.88;;;;;;;12.84;100.00;101602.34;6300215;28;20125;-72
2023/10/09 01:19:56;;;;;;;3.10;1.08;;;;;;;12.87;100.00;101582.88;6299901;28;20135;-70
2023/10/09 01:23:02;;;;;;;4.30;1.40;;;;;;;12.87;100.00;101580.25;6301821;28;20040;-71
2023/10/09 01:26:04;;;;;;;3.38;0.90;;;;;;;12.83;100.00;101590.09;6304238;28;20048;-73
2023/10/09 01:29:10;;;;;;;2.80;0.90;;;;;;;12.84;100.00;101570.69;6303158;28;20049;-70
2023/10/09 01:32:16;;;;;;;3.28;0.90;;;;;;;12.85;100.00;101580.34;6303210;28;20480;-70
2023/10/09 01:35:21;;;;;;;3.63;0.90;;;;;;;12.85;100.00;101563.63;6298584;28;20044;-71
2023/10/09 01:38:41;;;;;;;4.03;1.05;;;;;;;12.85;100.00;101580.34;6304942;28;20052;-71
2023/10/09 01:41:46;;;;;;;5.80;1.08;;;;;;;12.84;100.00;101560.13;6293313;28;20334;-70
2023/10/09 01:44:48;;;;;;;2.78;0.93;;;;;;;12.84;100.00;101560.13;6304812;28;20044;-72
2023/10/09 01:47:53;;;;;;;3.22;0.90;;;;;;;12.81;100.00;101556.78;6304431;28;20514;-72
2023/10/09 01:50:55;;;;;;;3.78;0.73;;;;;;;12.79;100.00;101534.94;6304320;28;20055;-72
2023/10/09 01:53:58;;;;;;;2.88;0.75;;;;;;;12.76;100.00;101512.19;6295994;28;20388;-72
2023/10/09 01:57:05;;;;;;;1.83;1.00;;;;;;;12.78;100.00;101512.13;6304298;28;20433;-72
2023/10/09 02:00:09;;;;;;;5.22;1.10;;;;;;;12.76;100.00;101509.53;6304039;28;20106;-72
2023/10/09 02:03:12;;;;;;;1.40;0.80;;;;;;;12.76;100.00;101506.91;6304237;28;20044;-72
2023/10/09 02:06:31;;;;;;;1.63;0.73;;;;;;;12.75;100.00;101517.53;6295662;28;20048;-70
2023/10/09 02:09:35;;;;;;;0.70;0.70;;;;;;;12.71;100.00;101511.56;6304057;28;20059;-71
2023/10/09 02:12:37;;;;;;;3.88;1.35;;;;;;;12.70;100.00;101517.78;6303930;28;20541;-70
2023/10/09 02:15:51;;;;;;;3.80;1.13;;;;;;;12.70;100.00;101520.41;6303920;28;20052;-71
2023/10/09 02:18:56;;;;;;;1.35;0.90;;;;;;;12.69;100.00;101516.94;6303798;28;20048;-70
2023/10/09 02:21:58;;;;;;;1.85;1.05;;;;;;;12.70;100.00;101515.13;6303631;28;20330;-70
2023/10/09 02:25:05;;;;;;;2.90;0.90;;;;;;;12.68;100.00;101509.94;6303535;28;20048;-71
2023/10/09 02:28:07;;;;;;;6.57;1.10;;;;;;;12.67;100.00;101483.63;6303869;28;20059;-71
2023/10/09 02:31:13;;;;;;;3.33;0.90;;;;;;;12.68;100.00;101462.47;6303289;28;20178;-70
2023/10/09 02:34:15;;;;;;;3.28;1.08;;;;;;;12.67;100.00;101465.19;6302489;28;20056;-70
2023/10/09 02:37:23;;;;;;;3.22;1.20;;;;;;;12.64;100.00;101476.75;6303574;28;20052;-70
2023/10/09 02:40:32;;;;;;;1.77;0.98;;;;;;;12.64;100.00;101470.63;6303179;28;20428;-72
2023/10/09 02:43:44;;;;;;;1.10;0.80;;;;;;;12.66;100.00;101474.03;6303303;28;20080;-70
2023/10/09 02:46:45;;;;;;;3.33;0.93;;;;;;;12.66;100.00;101464.31;6303259;28;20048;-70
2023/10/09 02:49:49;;;;;;;2.15;0.93;;;;;;;12.67;100.00;101457.25;6303151;28;20049;-70
2023/10/09 02:52:58;;;;;;;4.07;1.33;;;;;;;12.66;100.00;101445.00;6303037;28;20569;-70
2023/10/09 02:56:12;;;;;;;1.33;0.90;;;;;;;12.67;100.00;101438.81;6303256;28;20053;-70
2023/10/09 02:59:13;;;;;;;1.58;0.90;;;;;;;12.69;100.00;101427.25;6302913;28;20519;-70
2023/10/09 03:02:15;;;;;;;3.13;0.98;;;;;;;12.65;100.00;101412.53;6303003;28;20044;-70
2023/10/09 03:05:16;;;;;;;4.25;1.23;;;;;;;12.67;100.00;101407.16;6302831;28;20049;-70
2023/10/09 03:08:19;;;;;;;3.20;1.20;;;;;;;12.70;100.00;101402.59;6303006;28;20048;-70
2023/10/09 03:11:23;;;;;;;4.97;1.40;;;;;;;12.72;100.00;101399.88;6302303;28;20044;-70
2023/10/09 03:14:26;;;;;;;4.85;1.50;;;;;;;12.74;100.00;101395.38;6302856;28;20141;-70
2023/10/09 03:17:27;;;;;;;2.30;1.00;;;;;;;12.75;100.00;101391.81;6302607;28;20443;-70
2023/10/09 03:20:30;;;;;;;1.92;0.95;;;;;;;12.76;100.00;101392.66;6302184;28;20053;-70
2023/10/09 03:23:31;;;;;;;6.60;0.98;;;;;;;12.75;100.00;101385.69;6302452;28;20333;-70
2023/10/09 03:26:35;;;;;;;4.05;1.40;;;;;;;12.73;100.00;101388.41;6302116;28;20143;-70
2023/10/09 03:29:37;;;;;;;2.88;1.17;;;;;;;12.73;100.00;101388.41;6301524;28;20131;-72
2023/10/09 03:32:38;;;;;;;1.25;0.90;;;;;;;12.76;100.00;101392.66;6293601;28;20036;-70
2023/10/09 03:35:40;;;;;;;2.20;1.10;;;;;;;12.76;100.00;101390.00;6302232;28;20135;-71
2023/10/09 03:38:42;;;;;;;3.55;1.40;;;;;;;12.75;100.00;101391.81;6301911;28;20052;-70
2023/10/09 03:41:47;;;;;;;3.10;0.90;;;;;;;12.75;100.00;101397.06;6296397;28;20044;-70
2023/10/09 03:44:52;;;;;;;2.28;1.23;;;;;;;12.76;100.00;101404.03;6299337;28;20060;-73
2023/10/09 03:48:01;;;;;;;3.25;1.10;;;;;;;12.76;100.00;101387.38;6301570;28;20050;-71
2023/10/09 03:51:08;;;;;;;4.25;1.10;;;;;;;12.74;100.00;101370.78;6301472;28;20060;-72
2023/10/09 03:54:10;;;;;;;7.65;1.42;;;;;;;12.71;100.00;101379.69;6301875;28;20052;-73
2023/10/09 03:57:14;;;;;;;4.63;1.33;;;;;;;12.70;100.00;101375.38;6301369;28;20052;-73
2023/10/09 04:00:23;;;;;;;3.85;1.10;;;;;;;12.65;100.00;101356.31;6301413;28;20053;-73
2023/10/09 04:03:24;;;;;;;2.30;1.23;;;;;;;12.62;100.00;101375.75;6301420;28;20048;-72
2023/10/09 04:06:30;;;;;;;10.05;1.45;;;;;;;12.59;100.00;101389.13;6301267;28;20441;-73
2023/10/09 04:09:44;;;;;;;4.35;1.77;;;;;;;12.61;100.00;101389.03;6301192;28;20083;-73
2023/10/09 04:12:49;;;;;;;2.47;1.60;;;;;;;12.58;100.00;101390.06;6300999;28;20341;-74
2023/10/09 04:15:53;;;;;;;8.98;2.80;;;;;;;12.54;100.00;101385.03;6301014;28;20121;-74
2023/10/09 04:18:56;;;;;;;6.28;2.05;;;;;;;12.46;100.00;101398.59;6300778;28;20044;-74
2023/10/09 04:21:58;;;;;;;10.38;2.40;;;;;;;12.47;100.00;101394.16;6300767;28;20333;-74
2023/10/09 04:24:59;;;;;;;7.30;3.22;;;;;;;12.46;100.00;101388.03;6293019;28;20053;-75
2023/10/09 04:28:09;;;;;;;5.43;2.83;;;;;;;12.50;100.00;101381.69;6297360;22;20072;-74
2023/10/09 04:31:14;;;;;;;;;;;;;;;12.55;100.00;101376.16;6263054;28;20490;-74
2023/10/09 04:34:34;;;;;;;6.03;2.90;;;;;;;12.52;100.00;101382.44;6253925;28;20221;-76
2023/10/09 04:37:37;;;;;;;9.48;3.70;;;;;;;12.55;100.00;101382.28;6275759;28;20053;-73
2023/10/09 04:40:51;;;;;;;10.50;4.25;;;;;;;12.57;100.00;101398.03;6275502;28;20048;-73
2023/10/09 04:44:03;;;;;;;10.82;4.25;;;;;;;12.63;100.00;101403.00;6275944;28;20106;-74
2023/10/09 04:47:19;;;;;;;20.02;5.55;;;;;;;12.67;100.00;101402.75;6275565;28;20045;-73
2023/10/09 04:53:47;;;;;;;15.15;5.40;;;;;;;12.73;100.00;101398.09;6275702;28;20056;-74
2023/10/09 04:56:55;;;;;;;21.70;6.05;;;;;;;12.76;100.00;101401.41;6275073;28;20057;-74
2023/10/09 04:59:58;;;;;;;22.63;6.90;;;;;;;12.77;100.00;101389.09;6275455;28;20045;-74
2023/10/09 05:03:06;;;;;;;27.20;7.40;;;;;;;12.77;100.00;101383.81;6275374;28;20417;-74
2023/10/09 05:06:21;;;;;;;25.95;8.93;;;;;;;12.79;100.00;101398.63;6275590;28;20049;-74
2023/10/09 05:09:23;;;;;;;30.95;9.95;;;;;;;12.84;100.00;101440.59;6275140;28;20476;-74
2023/10/09 05:12:27;;;;;;;30.30;9.45;;;;;;;12.91;100.00;101397.13;6275237;28;20052;-74
2023/10/09 05:15:34;;;;;;;39.85;12.93;;;;;;;12.93;100.00;101392.63;6275243;28;20159;-74
2023/10/09 05:18:37;;;;;;;34.95;11.25;;;;;;;12.95;100.00;101383.72;6275444;28;20053;-74
2023/10/09 05:21:44;;;;;;;41.78;11.82;;;;;;;13.00;100.00;101382.63;6274945;28;20452;-74
2023/10/09 05:24:47;;;;;;;36.28;12.75;;;;;;;13.04;100.00;101392.06;6275091;28;20128;-74
2023/10/09 05:27:51;;;;;;;42.25;12.98;;;;;;;13.07;100.00;101381.34;6274792;28;20057;-74
2023/10/09 05:31:06;;;;;;;51.88;12.35;;;;;;;13.10;100.00;101384.66;6267705;28;20346;-74
2023/10/09 05:34:07;;;;;;;42.40;13.35;;;;;;;13.12;100.00;101406.53;6250240;28;20100;-75
2023/10/09 05:37:22;;;;;;;51.70;14.60;;;;;;;13.12;100.00;101453.19;6262152;28;20055;-74
2023/10/09 05:40:30;;;;;;;40.35;13.07;;;;;;;13.12;100.00;101401.25;6268639;28;20465;-73
2023/10/09 05:47:22;;;;;;;42.33;14.63;;;;;;;13.17;100.00;101388.69;6274792;28;20275;-73
2023/10/09 05:50:37;;;;;;;46.80;13.95;;;;;;;13.15;100.00;101382.63;6274468;28;20072;-74
2023/10/09 06:03:48;;;;;;;38.88;13.85;;;;;;;13.18;100.00;101395.66;6274679;28;20053;-74
2023/10/09 06:06:56;;;;;;;49.42;14.23;;;;;;;13.19;100.00;101400.00;6274480;28;20361;-74
2023/10/09 06:09:57;;;;;;;62.92;15.30;;;;;;;13.19;100.00;101404.44;6276544;28;20049;-73
2023/10/09 06:13:03;;;;;;;45.72;15.05;;;;;;;13.20;100.00;101401.72;6278847;28;20071;-74
2023/10/09 06:16:31;;;;;;;42.13;14.55;;;;;;;13.21;100.00;101408.69;6278918;28;20079;-74
2023/10/09 06:19:42;;;;;;;44.88;16.08;;;;;;;13.21;100.00;101400.75;6262384;28;20064;-73
2023/10/09 06:23:15;;;;;;;46.60;14.80;;;;;;;13.19;100.00;101400.00;6254091;28;20050;-74
2023/10/09 06:26:26;;;;;;;52.33;15.10;;;;;;;13.21;100.00;101413.97;6253929;28;20065;-73
2023/10/09 06:29:38;;;;;;;49.28;13.93;;;;;;;13.26;100.00;101408.47;6262697;28;20041;-73
2023/10/09 06:32:49;;;;;;;48.97;15.15;;;;;;;13.23;100.00;101413.94;6263226;28;20057;-74
2023/10/09 06:35:55;;;;;;;42.38;15.55;;;;;;;13.23;100.00;101408.66;6261206;28;20176;-74
2023/10/09 06:39:50;;;;;;;36.78;14.95;;;;;;;13.25;100.00;101414.69;6261569;28;20044;-73
2023/10/09 06:42:33;;;;;;;54.58;15.82;;;;;;;13.27;100.00;101412.84;6266358;28;20049;-73
2023/10/09 06:45:43;;;;;;;41.17;14.98;;;;;;;13.27;100.00;101409.34;6265797;28;20052;-73
2023/10/09 06:48:55;;;;;;;50.95;15.02;;;;;;;13.31;100.00;101398.53;6264502;28;20083;-73
2023/10/09 06:52:13;;;;;;;43.20;14.15;;;;;;;13.31;100.00;101395.06;6264435;28;20124;-74
2023/10/09 06:55:19;;;;;;;36.97;12.73;;;;;;;13.32;100.00;101381.75;6256199;28;20076;-73
2023/10/09 06:58:27;;;;;;;47.92;14.93;;;;;;;13.35;100.00;101370.16;6253707;28;20049;-74
2023/10/09 07:01:42;;;;;;;40.25;14.25;;;;;;;13.35;100.00;101376.31;6254438;28;20179;-74
2023/10/09 07:04:54;;;;;;;47.35;15.35;;;;;;;13.37;100.00;101377.06;6273094;28;20492;-74
2023/10/09 07:08:28;;;;;;;49.53;13.88;;;;;;;13.39;100.00;101376.97;6253201;28;20060;-75
2023/10/09 07:16:23;;;;;;;44.50;15.40;;;;;;;13.40;100.00;101382.19;6260428;28;20528;-75
2023/10/09 07:18:25;;;;;;;42.47;15.07;;;;;;;13.39;100.00;101376.97;6268417;28;20077;-74
2023/10/09 07:21:28;;;;;;;42.83;13.85;;;;;;;13.41;100.00;101364.56;6271581;28;20065;-75
2023/10/09 07:24:43;;;;;;;41.90;13.18;;;;;;;13.43;100.00;101352.13;6266520;28;20361;-75
2023/10/09 07:27:45;;;;;;;40.60;14.75;;;;;;;13.43;100.00;101352.13;6268888;28;20441;-75
2023/10/09 07:30:46;;;;;;;45.05;14.25;;;;;;;13.44;100.00;101356.44;6265332;28;20049;-76
2023/10/09 07:34:06;;;;;;;45.22;14.95;;;;;;;13.47;100.00;101350.16;6274529;28;20048;-75
2023/10/09 07:37:09;;;;;;;48.75;15.43;;;;;;;13.52;100.00;101358.69;6277181;28;20049;-75
2023/10/09 07:40:14;;;;;;;44.97;15.02;;;;;;;13.55;100.00;101355.88;6260134;28;20077;-75
2023/10/09 07:43:16;;;;;;;43.22;14.32;;;;;;;13.55;100.00;101356.72;6252412;28;20084;-75
2023/10/09 07:46:32;;;;;;;45.25;15.68;;;;;;;13.58;100.00;101355.69;6252537;28;20052;-75
2023/10/09 07:49:32;;;;;;;40.03;14.48;;;;;;;13.62;100.00;101365.97;6251534;28;20434;-75
2023/10/09 07:52:35;;;;;;;36.05;14.90;;;;;;;13.65;100.00;101367.63;6267326;28;20041;-74
2023/10/09 07:55:53;;;;;;;41.33;15.25;;;;;;;13.67;100.00;101363.97;6276838;28;20056;-74
2023/10/09 07:59:00;;;;;;;48.30;15.55;;;;;;;13.72;100.00;101374.28;6266499;28;20045;-75
2023/10/09 08:02:02;;;;;;;48.63;16.15;;;;;;;13.77;100.00;101381.94;6276422;28;20049;-72
2023/10/09 08:05:06;;;;;;;46.20;16.52;;;;;;;13.78;100.00;101384.47;6268161;28;20361;-77
2023/10/09 08:08:39;;;;;;;55.85;16.73;;;;;;;13.82;100.00;101388.66;6276580;28;20060;-76
2023/10/09 08:15:20;;;;;;;48.87;15.97;;;;;;;13.91;100.00;101382.00;6276206;28;20052;-77
2023/10/09 08:18:28;;;;;;;41.08;15.20;;;;;;;13.95;100.00;101387.03;6269184;28;20060;-74
2023/10/09 08:21:43;;;;;;;47.10;17.53;;;;;;;13.99;100.00;101394.75;6267932;28;20064;-76
2023/10/09 08:24:52;;;;;;;44.17;17.23;;;;;;;14.00;100.00;101399.97;6276049;28;20455;-75
2023/10/09 08:27:57;;;;;;;52.58;16.40;;;;;;;14.00;100.00;101407.06;6268692;28;20083;-79
2023/10/09 08:31:03;;;;;;;53.53;16.80;;;;;;;14.01;100.00;101401.66;6274163;28;20052;-77
2023/10/09 08:34:05;;;;;;;42.65;15.82;;;;;;;14.03;100.00;101407.69;6275433;28;20539;-76
2023/10/09 08:37:12;;;;;;;41.83;14.50;;;;;;;14.07;100.00;101396.03;6275892;28;20441;-76
2023/10/09 08:40:18;;;;;;;53.70;15.65;;;;;;;14.05;100.00;101391.78;6275487;28;20052;-75
2023/10/09 08:43:22;;;;;;;46.53;14.88;;;;;;;14.07;100.00;101389.88;6267415;28;20352;-74
2023/10/09 08:46:26;;;;;;;47.75;15.60;;;;;;;14.09;100.00;101388.03;6275557;28;20045;-76
2023/10/09 08:49:28;;;;;;;40.05;15.25;;;;;;;14.12;100.00;101380.75;6264836;28;20056;-75
2023/10/09 08:52:29;;;;;;;51.30;17.08;;;;;;;14.18;100.00;101390.13;6250656;28;20327;-75
2023/10/09 08:55:31;;;;;;;46.53;15.75;;;;;;;14.19;100.00;101381.25;6250838;28;20058;-79
2023/10/09 08:58:36;;;;;;;40.10;15.25;;;;;;;14.19;100.00;101374.16;6261202;28;20456;-77
2023/10/09 09:01:39;;;;;;;49.28;15.60;;;;;;;14.21;100.00;101385.50;6265363;28;20350;-77
2023/10/09 09:04:45;;;;;;;47.67;17.05;;;;;;;14.22;100.00;101402.22;6266873;28;20330;-78
2023/10/09 09:07:47;;;;;;;47.78;16.80;;;;;;;14.23;100.00;101416.31;6267207;28;20045;-77
2023/10/09 09:10:58;;;;;;;45.70;16.95;;;;;;;14.25;100.00;101419.69;6271998;28;20056;-76
2023/10/09 09:14:06;;;;;;;51.42;16.83;;;;;;;14.25;100.00;101412.63;6275186;28;20382;-75
2023/10/09 09:17:10;;;;;;;52.38;16.45;;;;;;;14.27;100.00;101397.53;6267065;28;20060;-75
2023/10/09 09:20:22;;;;;;;52.78;16.15;;;;;;;14.29;100.00;101392.97;6275181;28;20053;-74
2023/10/09 09:23:26;;;;;;;48.13;16.73;;;;;;;14.30;100.00;101392.03;6262160;28;20180;-75
2023/10/09 09:26:38;;;;;;;44.83;15.07;;;;;;;14.31;100.00;101401.69;6250362;28;20052;-77
2023/10/09 09:29:52;;;;;;;37.80;14.05;;;;;;;14.35;100.00;101394.41;6250202;28;20053;-74
2023/10/09 09:36:11;;;;;;;44.83;15.52;;;;;;;14.36;100.00;101389.06;6249960;28;20079;-74
2023/10/09 09:39:19;;;;;;;38.28;15.88;;;;;;;14.38;100.00;101381.03;6250153;28;20053;-76
2023/10/09 09:42:25;;;;;;;38.75;15.55;;;;;;;14.38;100.00;101373.09;6260899;28;20056;-75
2023/10/09 09:45:28;;;;;;;44.72;15.27;;;;;;;14.42;100.00;101372.81;6279929;28;20045;-76
2023/10/09 09:48:32;;;;;;;51.00;17.10;;;;;;;14.45;100.00;101387.66;6279354;28;20056;-78
2023/10/09 09:51:34;;;;;;;41.30;15.02;;;;;;;14.47;100.00;101378.69;6279541;28;20068;-75
2023/10/09 09:54:36;;;;;;;52.75;17.05;;;;;;;14.50;100.00;101380.34;6279643;28;20056;-75
2023/10/09 09:57:39;;;;;;;36.67;15.30;;;;;;;14.54;100.00;101383.66;6279629;28;20052;-74
2023/10/09 10:00:45;;;;;;;43.08;17.63;;;;;;;14.56;100.00;101387.03;6278984;28;20433;-77
2023/10/09 10:03:50;;;;;;;50.95;16.50;;;;;;;14.57;100.00;101389.59;6279428;28;20068;-74
2023/10/09 10:06:54;;;;;;;42.13;17.42;;;;;;;14.56;100.00;101387.91;6279505;28;20429;-75
2023/10/09 10:09:57;;;;;;;39.47;16.20;;;;;;;14.59;100.00;101397.44;6279269;28;20137;-76
2023/10/09 10:13:02;;;;;;;40.97;14.95;;;;;;;14.61;100.00;101387.63;6279329;28;20074;-76
2023/10/09 10:16:13;;;;;;;41.58;15.52;;;;;;;14.61;100.00;101396.41;6279073;28;20052;-75
2023/10/09 10:19:23;;;;;;;39.58;15.70;;;;;;;14.62;100.00;101394.59;6264937;28;20081;-77
2023/10/09 10:22:27;;;;;;;45.50;15.40;;;;;;;14.65;100.00;101397.06;6274372;28;20057;-78
2023/10/09 10:25:35;;;;;;;41.55;15.27;;;;;;;14.66;100.00;101389.03;6254180;28;20053;-76
2023/10/09 10:28:38;;;;;;;43.90;15.35;;;;;;;14.66;100.00;101381.09;6266737;28;20094;-77
2023/10/09 10:32:06;;;;;;;43.67;14.70;;;;;;;14.68;100.00;101388.97;6278458;28;20131;-75
2023/10/09 10:35:10;;;;;;;39.65;13.88;;;;;;;14.70;100.00;101390.56;6267007;28;20056;-75
2023/10/09 10:38:24;;;;;;;39.35;14.40;;;;;;;14.73;100.00;101388.69;6256649;28;20052;-75
2023/10/09 10:41:25;;;;;;;42.35;14.40;;;;;;;14.75;100.00;101389.44;6261960;28;20167;-76
2023/10/09 10:44:38;;;;;;;39.03;14.85;;;;;;;14.77;100.00;101379.63;6259568;28;20063;-77
2023/10/09 10:47:42;;;;;;;37.30;14.30;;;;;;;14.79;100.00;101383.88;6266392;28;20464;-78
2023/10/09 10:50:45;;;;;;;37.17;13.93;;;;;;;14.81;100.00;101402.31;6275112;28;20045;-76
2023/10/09 10:53:57;;;;;;;39.95;15.60;;;;;;;14.83;100.00;101395.97;6278239;28;20045;-76
2023/10/09 10:56:59;;;;;;;41.80;14.93;;;;;;;14.82;100.00;101393.41;6277430;28;20413;-75
2023/10/09 11:03:29;;;;;;;35.40;14.43;;;;;;;14.84;100.00;101397.66;6227995;28;20042;-78
2023/10/09 11:06:38;;;;;;;32.83;13.43;;;;;;;14.87;100.00;101389.53;6253353;28;20200;-77
2023/10/09 11:10:07;;;;;;;38.50;15.77;;;;;;;14.90;100.00;101388.53;6252813;28;20049;-75
2023/10/09 11:16:42;;;;;;;38.03;14.30;;;;;;;14.93;100.00;101399.75;6253909;28;20442;-74
2023/10/09 11:19:45;;;;;;;40.35;14.15;;;;;;;14.96;100.00;101399.56;6269634;28;20074;-74
2023/10/09 11:23:11;;;;;;;28.85;14.32;;;;;;;15.00;100.00;101387.00;6264956;28;20124;-75
2023/10/09 11:26:25;;;;;;;37.85;15.32;;;;;;;15.02;100.00;101381.59;6263681;28;20127;-75
2023/10/09 11:29:52;;;;;;;37.00;15.20;;;;;;;15.03;100.00;101402.69;6266859;28;20132;-75
2023/10/09 11:32:53;;;;;;;41.35;15.07;;;;;;;15.09;100.00;101393.53;6274116;28;20080;-75
2023/10/09 11:35:58;;;;;;;36.90;15.25;;;;;;;15.11;100.00;101399.56;6268985;28;20056;-75
2023/10/09 11:39:17;;;;;;;33.53;14.85;;;;;;;15.09;100.00;101397.03;6268451;28;20087;-74
2023/10/09 11:42:35;;;;;;;39.40;15.63;;;;;;;15.12;100.00;101395.97;6277106;28;20059;-74
2023/10/09 11:45:38;;;;;;;30.70;14.98;;;;;;;15.11;100.00;101400.41;6263421;28;20377;-77
2023/10/09 11:48:46;;;;;;;31.08;14.70;;;;;;;15.13;100.00;101401.19;6277020;28;20069;-74
2023/10/09 11:52:34;;;;;;;35.45;13.00;;;;;;;15.14;100.00;101399.38;6268305;28;20045;-74
2023/10/09 11:55:14;;;;;;;27.23;12.70;;;;;;;15.14;100.00;101404.69;6276496;28;20049;-75
2023/10/09 11:58:22;;;;;;;29.80;13.27;;;;;;;15.16;100.00;101400.97;6273611;28;20136;-75
2023/10/09 12:01:25;;;;;;;24.45;11.82;;;;;;;15.17;100.00;101399.19;6268133;28;20507;-76
2023/10/09 12:04:30;;;;;;;24.23;11.68;;;;;;;15.20;100.00;101401.63;6269787;28;20045;-76
2023/10/09 12:07:32;;;;;;;31.23;11.30;;;;;;;15.20;100.00;101399.84;6275455;28;20443;-75
2023/10/09 12:10:34;;;;;;;29.33;12.52;;;;;;;15.22;100.00;101408.56;6276034;28;20144;-76
2023/10/09 12:13:38;;;;;;;27.42;12.27;;;;;;;15.20;100.00;101409.59;6268107;28;20136;-76
2023/10/09 12:16:49;;;;;;;25.83;12.48;;;;;;;15.19;100.00;101410.53;6276237;28;20049;-75
2023/10/09 12:19:51;;;;;;;24.95;11.25;;;;;;;15.20;100.00;101406.94;6276224;28;20063;-76
2023/10/09 12:22:56;;;;;;;27.83;12.27;;;;;;;15.21;100.00;101403.34;6267483;28;20053;-76
2023/10/09 12:25:58;;;;;;;32.33;13.05;;;;;;;15.22;100.00;101403.25;6251195;28;20445;-75
2023/10/09 12:29:00;;;;;;;28.65;11.38;;;;;;;15.23;100.00;101401.47;6251163;28;20441;-75
2023/10/09 12:32:02;;;;;;;33.00;12.20;;;;;;;15.27;100.00;101397.69;6251204;28;20092;-74
2023/10/09 12:35:16;;;;;;;25.65;11.43;;;;;;;15.29;100.00;101397.56;6251066;28;20200;-75
2023/10/09 12:38:22;;;;;;;24.95;11.55;;;;;;;15.33;100.00;101405.22;6251014;28;20437;-75
2023/10/09 12:41:26;;;;;;;27.70;11.43;;;;;;;15.36;100.00;101406.84;6265696;28;20442;-75
2023/10/09 12:44:27;;;;;;;24.77;11.95;;;;;;;15.37;100.00;101409.38;6275691;28;20122;-75
2023/10/09 12:47:30;;;;;;;22.05;10.25;;;;;;;15.42;100.00;101402.00;6261783;28;20045;-76
2023/10/09 12:50:33;;;;;;;25.80;12.23;;;;;;;15.46;100.00;101405.31;6261506;28;20045;-75
2023/10/09 12:53:41;;;;;;;21.33;10.15;;;;;;;15.45;100.00;101414.22;6264203;28;20083;-75
2023/10/09 12:56:42;;;;;;;25.20;12.10;;;;;;;15.43;100.00;101403.69;6250444;28;20049;-76
2023/10/09 12:59:45;;;;;;;26.60;11.18;;;;;;;15.47;100.00;101407.84;6250329;28;20358;-75
2023/10/09 13:02:46;;;;;;;20.33;10.00;;;;;;;15.47;100.00;101402.56;6266815;28;20045;-75
2023/10/09 13:05:53;;;;;;;25.92;12.07;;;;;;;15.51;100.00;101397.06;6275362;28;20052;-75
2023/10/09 13:08:59;;;;;;;25.60;10.88;;;;;;;15.51;100.00;101399.72;6275214;28;20352;-77
2023/10/09 13:12:01;;;;;;;20.48;10.02;;;;;;;15.51;100.00;101394.44;6275219;28;20051;-77
2023/10/09 13:15:08;;;;;;;21.65;10.27;;;;;;;15.52;100.00;101386.38;6273536;28;20365;-76
2023/10/09 13:18:10;;;;;;;24.70;11.13;;;;;;;15.55;100.00;101386.19;6267125;28;20049;-78
2023/10/09 13:21:11;;;;;;;23.65;11.05;;;;;;;15.57;100.00;101386.91;6266495;28;20057;-78
2023/10/09 13:24:15;;;;;;;22.98;11.20;;;;;;;15.56;100.00;101387.03;6254535;28;20349;-77
2023/10/09 13:27:21;;;;;;;16.70;9.15;;;;;;;15.59;100.00;101377.09;6259221;28;20057;-76
2023/10/09 13:30:25;;;;;;;15.23;8.70;;;;;;;15.59;100.00;101377.09;6261511;28;20396;-75
2023/10/09 13:33:28;;;;;;;19.90;9.35;;;;;;;15.60;100.00;101383.25;6268554;28;20460;-75
2023/10/09 13:36:31;;;;;;;15.43;9.05;;;;;;;15.63;100.00;101386.53;6265327;28;20056;-75
2023/10/09 13:39:39;;;;;;;16.05;8.10;;;;;;;15.63;100.00;101391.84;6272101;28;20056;-75
2023/10/09 13:42:41;;;;;;;17.20;8.88;;;;;;;15.65;100.00;101384.66;6261888;28;20045;-74
2023/10/09 13:45:48;;;;;;;18.73;8.57;;;;;;;15.67;100.00;101385.44;6274704;28;20664;-75
2023/10/09 13:48:52;;;;;;;17.67;8.52;;;;;;;15.67;100.00;101390.75;6269863;28;20139;-76
2023/10/09 13:51:56;;;;;;;13.57;7.85;;;;;;;15.71;100.00;101394.00;6271498;28;20098;-76
2023/10/09 13:55:14;;;;;;;15.50;6.57;;;;;;;15.77;100.00;101398.09;6274992;28;20041;-76
2023/10/09 13:58:20;;;;;;;12.50;6.47;;;;;;;15.79;100.00;101404.97;6274669;28;20139;-75
2023/10/09 14:01:27;;;;;;;10.77;5.90;;;;;;;15.77;100.00;101400.75;6266226;28;20060;-74
2023/10/09 14:04:30;;;;;;;10.68;5.55;;;;;;;15.77;100.00;101400.75;6272236;28;20053;-76
2023/10/09 14:07:34;;;;;;;10.75;5.60;;;;;;;15.77;100.00;101400.75;6264996;28;20052;-75
2023/10/09 14:10:39;;;;;;;8.13;5.30;;;;;;;15.79;100.00;101398.81;6270637;28;20044;-75
2023/10/09 14:13:41;;;;;;;9.43;5.60;;;;;;;15.73;100.00;101400.94;6266067;28;20388;-75
2023/10/09 14:16:43;;;;;;;9.93;5.10;;;;;;;15.75;100.00;101405.28;6275024;28;20443;-75
2023/10/09 14:19:47;;;;;;;9.45;5.22;;;;;;;15.75;100.00;101397.31;6274136;28;20045;-75
2023/10/09 14:22:52;;;;;;;9.57;4.60;;;;;;;15.72;100.00;101396.59;6274622;28;20567;-74
2023/10/09 14:25:56;;;;;;;11.43;5.13;;;;;;;15.73;100.00;101390.31;6274229;28;20064;-74
2023/10/09 14:28:57;;;;;;;9.52;4.93;;;;;;;15.72;100.00;101401.03;6274251;28;20371;-75
2023/10/09 14:32:02;;;;;;;9.10;4.78;;;;;;;15.72;100.00;101401.88;6277855;28;20053;-75
2023/10/09 14:35:12;;;;;;;9.90;5.45;;;;;;;15.73;100.00;101402.72;6278641;28;20445;-75
2023/10/09 14:38:15;;;;;;;9.48;4.95;;;;;;;15.73;100.00;101405.38;6278658;28;20056;-75
2023/10/09 14:41:17;;;;;;;6.72;4.38;;;;;;;15.72;100.00;101403.69;6278561;28;20060;-75